Bootsie B, — WDF9484 — position and weather

sailwx.info

Track history (hours):
 
Tides and Currents Weather Stations Pressure Air Temp Water Temp Dewpoint Dewpoint Depression Visibility Wind Speed Wind Dir Waves Ship Positions

Bootsie B,

Owner: Marquette Transp[ortation Co. LLC, Paducah, KY. More information available from US FCC via Universal Licensing System and Coast Guard Vessel Documentation Center.

Last reported at 2016-Aug-30 06:34 UTC. Time now 2016-Aug-30 07:24 UTC.
Position N 32°12' W 090°59'.

Length 57 m; draft 2 m.

Type: Towing. MMSI: 367505630.

Date/timePositionNaut miles runAvg speedWind from/ knotsBaromVisibWave heightAir tempDewpointWater temp
2016-Aug-30 06:34N 32°12' W 090°59'5 4.7
2016-Aug-30 05:34N 32°07' W 091°01'4 4.5
2016-Aug-30 04:33N 32°08' W 091°06'3 2.3
2016-Aug-30 03:25N 32°05' W 091°05'3 3.0
2016-Aug-30 02:33N 32°03' W 091°03'  
2016-Aug-23 15:15N 31°59' W 091°06'6 8.5
2016-Aug-23 14:30N 32°06' W 091°06'3 3.1
2016-Aug-23 13:34N 32°07' W 091°03'9 9.1
2016-Aug-23 12:34N 32°16' W 090°58'5 5.4
2016-Aug-23 11:33N 32°21' W 090°58'8 8.1
2016-Aug-23 10:34N 32°27' W 091°05'9 9.0
2016-Aug-23 09:34N 32°35' W 091°08'9 7.6
2016-Aug-23 08:22N 32°44' W 091°04'7 7.3
2016-Aug-23 07:27N 32°48' W 091°09'  
Track history (hours):
 
Tides and Currents Weather Stations Pressure Air Temp Water Temp Dewpoint Dewpoint Depression Visibility Wind Speed Wind Dir Waves Ship Positions

Bootsie B,

Owner: Marquette Transp[ortation Co. LLC, Paducah, KY. More information available from US FCC via Universal Licensing System and Coast Guard Vessel Documentation Center.

Last reported at 2016-Aug-30 06:34 UTC. Time now 2016-Aug-30 07:24 UTC.
Position N 32°12' W 090°59'.

Length 57 m; draft 2 m.

Type: Towing. MMSI: 367505630.

Date/timePositionNaut miles runAvg speedWind from/ knotsBaromVisibWave heightAir tempDewpointWater temp
2016-Aug-30 06:34N 32°12' W 090°59'5 4.7
2016-Aug-30 05:34N 32°07' W 091°01'4 4.5
2016-Aug-30 04:33N 32°08' W 091°06'3 2.3
2016-Aug-30 03:25N 32°05' W 091°05'3 3.0
2016-Aug-30 02:33N 32°03' W 091°03'  
2016-Aug-23 15:15N 31°59' W 091°06'6 8.5
2016-Aug-23 14:30N 32°06' W 091°06'3 3.1
2016-Aug-23 13:34N 32°07' W 091°03'9 9.1
2016-Aug-23 12:34N 32°16' W 090°58'5 5.4
2016-Aug-23 11:33N 32°21' W 090°58'8 8.1
2016-Aug-23 10:34N 32°27' W 091°05'9 9.0
2016-Aug-23 09:34N 32°35' W 091°08'9 7.6
2016-Aug-23 08:22N 32°44' W 091°04'7 7.3
2016-Aug-23 07:27N 32°48' W 091°09'  

Dump ship's entire track history